Time;durP1;ratioP1;P1;durP2;ratioP2;P2;SDS_P1;SDS_P2;PMS_P1;PMS_P2;Temp;Humidity;BMP_temperature;BMP_pressure;BME280_temperature;BME280_humidity;BME280_pressure;Samples;Min_cycle;Max_cycle;Signal;HPM_P1;HPM_P2
2023/09/05 00:02:36;;;;;;;10.50;8.90;;;;;;;18.26;62.31;101572.32;112659;1240;21914;-78
2023/09/05 00:05:45;;;;;;;14.20;9.80;;;;;;;18.26;62.44;101570.20;112676;1241;21962;-77
2023/09/05 00:08:29;;;;;;;10.80;8.60;;;;;;;18.27;62.38;101570.89;112692;1241;21899;-76
2023/09/05 00:11:44;;;;;;;13.00;10.20;;;;;;;18.20;62.48;101560.83;112017;1245;23078;-77
2023/09/05 00:14:55;;;;;;;16.10;10.50;;;;;;;18.22;62.57;101562.52;112060;1245;22036;-79
2023/09/05 00:17:37;;;;;;;15.90;10.70;;;;;;;18.17;62.48;101557.63;111904;1245;21961;-77
2023/09/05 00:20:54;;;;;;;;;;;;;;;;;;;;;
2023/09/05 00:24:44;;;;;;;15.80;11.10;;;;;;;18.01;62.67;101555.06;112044;1245;21999;-77
2023/09/05 00:27:57;;;;;;;16.60;11.40;;;;;;;17.89;62.93;101551.63;112842;1239;21951;-77
2023/09/05 00:31:27;;;;;;;13.80;10.40;;;;;;;17.75;63.28;101553.36;112669;1240;21957;-77
2023/09/05 00:34:11;;;;;;;14.50;10.80;;;;;;;17.69;63.42;101555.56;112700;1240;21948;-78
2023/09/05 00:37:05;;;;;;;12.40;11.10;;;;;;;17.67;63.65;101556.36;112179;1244;22370;-75
2023/09/05 00:39:54;;;;;;;11.80;10.60;;;;;;;17.66;63.75;101556.95;111796;1244;23009;-77
2023/09/05 00:42:56;;;;;;;19.70;11.20;;;;;;;17.62;63.74;101558.19;111285;1251;22733;-77
2023/09/05 00:46:20;;;;;;;18.10;11.50;;;;;;;17.54;63.88;101562.59;111379;1251;23040;-78
2023/09/05 00:49:02;;;;;;;12.80;10.60;;;;;;;17.50;63.86;101562.11;111745;1245;23658;-78
2023/09/05 00:52:11;;;;;;;12.60;10.50;;;;;;;17.45;64.27;101562.36;111917;1245;21975;-78
2023/09/05 00:55:16;;;;;;;18.30;11.10;;;;;;;17.39;64.64;101555.22;112129;1240;22645;-77
2023/09/05 00:58:02;;;;;;;14.00;10.00;;;;;;;17.37;64.79;101551.27;112433;1240;23057;-78
2023/09/05 01:01:11;;;;;;;16.00;12.10;;;;;;;17.32;64.97;101555.93;112848;1234;23357;-78
2023/09/05 01:04:19;;;;;;;16.20;11.90;;;;;;;17.28;65.20;101555.95;112645;1240;21952;-78
2023/09/05 01:07:50;;;;;;;14.80;12.20;;;;;;;17.19;65.41;101554.06;112338;1240;23625;-77
2023/09/05 01:10:38;;;;;;;16.00;12.70;;;;;;;17.08;65.72;101553.52;112687;1241;21991;-77
2023/09/05 01:13:33;;;;;;;16.10;12.00;;;;;;;17.00;66.01;101552.13;112558;1240;22037;-78
2023/09/05 01:16:18;;;;;;;13.80;10.90;;;;;;;16.95;66.25;101547.24;112091;1241;22329;-77
2023/09/05 01:19:15;;;;;;;13.30;11.90;;;;;;;16.88;66.48;101543.35;112725;1239;22056;-77
2023/09/05 01:22:49;;;;;;;14.40;11.60;;;;;;;16.79;66.78;101543.71;112569;1234;21943;-77
2023/09/05 01:25:38;;;;;;;21.60;12.90;;;;;;;16.66;67.20;101543.39;112652;1240;22102;-77
2023/09/05 01:28:35;;;;;;;14.20;11.90;;;;;;;16.61;67.39;101541.86;112638;1240;23578;-77
2023/09/05 01:31:43;;;;;;;17.10;13.20;;;;;;;16.54;67.67;101541.46;112725;1240;23506;-76
2023/09/05 01:34:25;;;;;;;18.00;12.90;;;;;;;16.46;67.91;101541.31;112408;1240;21942;-77
2023/09/05 01:37:25;;;;;;;18.60;12.40;;;;;;;16.38;68.15;101546.56;111838;1246;21980;-77
2023/09/05 01:40:39;;;;;;;14.10;12.30;;;;;;;16.29;68.43;101551.84;111104;1252;21977;-77
2023/09/05 01:43:10;;;;;;;19.90;13.90;;;;;;;16.24;68.70;101553.83;111230;1251;22917;-76
2023/09/05 01:45:50;;;;;;;;;;;;;;;;;;;;;
2023/09/05 01:48:48;;;;;;;16.20;12.20;;;;;;;16.20;69.22;101552.77;111518;1251;22012;-78
2023/09/05 01:51:19;;;;;;;13.50;12.10;;;;;;;16.23;69.55;101554.92;111556;1251;23626;-77
2023/09/05 01:53:53;;;;;;;14.70;12.30;;;;;;;16.26;69.44;101553.57;111623;1251;24291;-78
2023/09/05 01:56:24;;;;;;;13.90;12.10;;;;;;;16.27;69.41;101553.34;111547;1251;22321;-77
2023/09/05 01:59:11;;;;;;;12.90;11.50;;;;;;;16.27;69.45;101550.53;111541;1251;22749;-77
2023/09/05 02:01:55;;;;;;;13.70;12.30;;;;;;;16.26;69.47;101549.87;111182;1254;23770;-77
2023/09/05 02:05:10;;;;;;;13.40;12.00;;;;;;;16.22;69.32;101548.49;111066;1256;21959;-77
2023/09/05 02:08:06;;;;;;;14.70;12.30;;;;;;;16.15;69.38;101541.89;111178;1251;22708;-79
2023/09/05 02:10:41;;;;;;;19.20;12.80;;;;;;;16.10;69.57;101534.36;110815;1252;21983;-77
2023/09/05 02:13:21;;;;;;;14.40;11.60;;;;;;;16.06;69.60;101530.38;111252;1252;23684;-77
2023/09/05 02:16:00;;;;;;;14.40;12.60;;;;;;;15.99;69.42;101531.02;111583;1247;22037;-78
2023/09/05 02:18:49;;;;;;;;;;;;;;;;;;;;;
2023/09/05 02:21:51;;;;;;;14.40;12.90;;;;;;;15.81;69.87;101525.27;111274;1252;22003;-77
2023/09/05 02:24:30;;;;;;;14.50;13.00;;;;;;;15.74;69.77;101526.23;111102;1252;23539;-78
2023/09/05 02:27:31;;;;;;;15.70;12.80;;;;;;;15.66;70.01;101527.75;111815;1244;22977;-77
2023/09/05 02:30:25;;;;;;;18.90;13.50;;;;;;;15.58;70.18;101523.87;111946;1245;22708;-77
2023/09/05 02:33:12;;;;;;;17.40;13.30;;;;;;;15.51;70.30;101525.90;112033;1237;21964;-77
2023/09/05 02:36:28;;;;;;;;;;;;;;;;;;;;;
2023/09/05 02:39:32;;;;;;;19.80;13.40;;;;;;;15.38;70.92;101527.98;112241;1240;21982;-78
2023/09/05 02:42:37;;;;;;;13.40;12.10;;;;;;;15.37;71.07;101530.31;112777;1240;23088;-77
2023/09/05 02:45:22;;;;;;;12.40;10.90;;;;;;;15.36;71.28;101528.06;112670;1240;21963;-77
2023/09/05 02:48:15;;;;;;;17.90;12.80;;;;;;;15.39;71.32;101529.17;112967;1234;21948;-77
2023/09/05 02:51:38;;;;;;;13.70;12.30;;;;;;;15.39;71.30;101534.61;113131;1234;22930;-76
2023/09/05 02:54:30;;;;;;;13.60;12.20;;;;;;;15.34;71.26;101531.28;111859;1247;22813;-77
2023/09/05 02:57:17;;;;;;;;;;;;;;;;;;;;;
2023/09/05 03:00:22;;;;;;;14.40;12.90;;;;;;;15.31;71.49;101531.94;111412;1248;22107;-77
2023/09/05 03:03:00;;;;;;;13.90;12.50;;;;;;;15.29;71.48;101532.89;111054;1252;21974;-78
2023/09/05 03:05:51;;;;;;;17.50;13.70;;;;;;;15.28;71.39;101534.70;111173;1253;21983;-76
2023/09/05 03:08:38;;;;;;;19.00;12.70;;;;;;;15.26;71.44;101537.75;111327;1252;22071;-78
2023/09/05 03:12:01;;;;;;;;;;;;;;;;;;;;;
2023/09/05 03:15:08;;;;;;;20.60;13.70;;;;;;;15.17;71.46;101534.05;111045;1255;22191;-77
2023/09/05 03:18:19;;;;;;;17.10;13.60;;;;;;;15.12;71.67;101530.55;111286;1250;22036;-78
2023/09/05 03:21:23;;;;;;;18.20;14.10;;;;;;;15.12;71.78;101526.88;111420;1250;23771;-77
2023/09/05 03:24:18;;;;;;;20.80;15.80;;;;;;;15.09;71.85;101528.91;111302;1249;22361;-78
2023/09/05 03:27:13;;;;;;;17.40;14.70;;;;;;;15.10;71.99;101533.09;111397;1252;22874;-78
2023/09/05 03:29:48;;;;;;;18.00;14.40;;;;;;;15.11;72.20;101535.50;111260;1250;23728;-77
2023/09/05 03:32:40;;;;;;;18.60;13.80;;;;;;;15.11;72.09;101534.83;111322;1252;24744;-77
2023/09/05 03:35:31;;;;;;;31.80;28.50;;;;;;;15.07;72.03;101535.11;110929;1257;21966;-76
2023/09/05 03:38:32;;;;;;;21.70;19.70;;;;;;;15.03;71.91;101539.66;110806;1257;23044;-76
2023/09/05 03:41:10;;;;;;;20.00;17.20;;;;;;;14.99;72.27;101534.02;110496;1262;23057;-77
2023/09/05 03:43:50;;;;;;;17.90;15.60;;;;;;;15.01;72.26;101535.55;110723;1258;22015;-76
2023/09/05 03:46:25;;;;;;;18.20;15.10;;;;;;;15.00;72.20;101540.13;110708;1258;23689;-77
2023/09/05 03:49:09;;;;;;;21.10;14.50;;;;;;;14.98;72.24;101541.23;110792;1257;21977;-77
2023/09/05 03:52:10;;;;;;;17.90;15.50;;;;;;;14.96;72.21;101539.75;111024;1250;23690;-78
2023/09/05 03:55:17;;;;;;;18.90;15.80;;;;;;;14.92;72.31;101541.48;111441;1247;21947;-78
2023/09/05 03:58:12;;;;;;;17.90;16.10;;;;;;;14.89;72.52;101541.94;111914;1246;21986;-77
2023/09/05 04:01:21;;;;;;;22.10;17.40;;;;;;;14.88;72.57;101548.27;111763;1245;22450;-77
2023/09/05 04:03:58;;;;;;;18.40;16.60;;;;;;;14.88;72.79;101546.70;112073;1240;21955;-76
2023/09/05 04:06:41;;;;;;;18.40;16.60;;;;;;;14.90;72.83;101548.77;112465;1240;22574;-78
2023/09/05 04:09:15;;;;;;;19.00;17.00;;;;;;;14.91;72.76;101548.00;112488;1240;23021;-77
2023/09/05 04:11:54;;;;;;;18.30;16.40;;;;;;;14.93;72.77;101547.92;111954;1246;23015;-77
2023/09/05 04:14:27;;;;;;;23.90;17.10;;;;;;;14.95;72.90;101547.48;111861;1246;22027;-76
2023/09/05 04:17:13;;;;;;;24.70;17.90;;;;;;;14.98;72.92;101547.02;111848;1246;24522;-77
2023/09/05 04:19:54;;;;;;;21.90;17.50;;;;;;;15.00;73.05;101540.30;111668;1246;21973;-78
2023/09/05 04:22:35;;;;;;;19.60;17.30;;;;;;;15.00;72.76;101537.15;111782;1246;21939;-78
2023/09/05 04:25:19;;;;;;;19.00;16.70;;;;;;;15.00;72.74;101540.31;111648;1246;23774;-76
2023/09/05 04:27:59;;;;;;;19.20;17.30;;;;;;;15.00;72.77;101544.14;111867;1246;23059;-77
2023/09/05 04:30:38;;;;;;;19.10;16.80;;;;;;;14.98;72.78;101546.34;111473;1246;23027;-78
2023/09/05 04:33:20;;;;;;;19.10;16.20;;;;;;;14.92;72.78;101548.83;111840;1247;21984;-77
2023/09/05 04:36:11;;;;;;;20.10;16.40;;;;;;;14.87;72.85;101550.77;111933;1246;21979;-79
2023/09/05 04:38:48;;;;;;;23.50;17.90;;;;;;;14.84;72.98;101551.05;111862;1246;21991;-78
2023/09/05 04:41:22;;;;;;;18.00;16.20;;;;;;;14.81;73.09;101554.29;111751;1246;22146;-77
2023/09/05 04:44:11;;;;;;;17.60;15.80;;;;;;;14.78;73.09;101554.25;111643;1246;22072;-78
2023/09/05 04:46:47;;;;;;;18.30;15.50;;;;;;;14.75;73.20;101558.05;111841;1246;23721;-76
2023/09/05 04:49:19;;;;;;;17.80;15.40;;;;;;;14.73;73.33;101560.04;112340;1240;21951;-77
2023/09/05 04:51:56;;;;;;;15.80;14.40;;;;;;;14.71;73.41;101559.40;112791;1234;23624;-78
2023/09/05 04:54:29;;;;;;;19.50;16.50;;;;;;;14.67;73.33;101557.44;113043;1234;23726;-77
2023/09/05 04:57:06;;;;;;;16.60;15.00;;;;;;;14.63;73.42;101558.81;112308;1239;23568;-74
2023/09/05 04:59:34;;;;;;;18.30;16.00;;;;;;;14.61;73.53;101558.87;112598;1239;21953;-76
2023/09/05 05:02:07;;;;;;;19.20;16.20;;;;;;;14.62;73.57;101556.23;112156;1244;22004;-76
2023/09/05 05:04:40;;;;;;;17.70;15.80;;;;;;;14.62;73.84;101554.30;112227;1244;21957;-75
2023/09/05 05:07:18;;;;;;;16.90;15.20;;;;;;;14.64;74.02;101560.88;111793;1247;23695;-76
2023/09/05 05:10:00;;;;;;;19.30;16.50;;;;;;;14.63;73.97;101562.14;111578;1247;22420;-74
2023/09/05 05:12:44;;;;;;;19.10;17.10;;;;;;;14.65;74.14;101561.56;111671;1247;22000;-74
2023/09/05 05:15:32;;;;;;;18.00;16.10;;;;;;;14.67;74.30;101565.48;111922;1243;22193;-75
2023/09/05 05:18:04;;;;;;;16.60;14.90;;;;;;;14.73;74.20;101570.73;112224;1243;21950;-74
2023/09/05 05:21:08;;;;;;;18.30;16.40;;;;;;;14.79;74.41;101577.17;112872;1238;23599;-75
2023/09/05 05:23:50;;;;;;;22.40;15.50;;;;;;;14.87;74.36;101582.31;112862;1238;21961;-74
2023/09/05 05:26:35;;;;;;;;;;;;;;;14.95;74.46;101581.84;113180;1234;21927;-77
2023/09/05 05:29:22;;;;;;;20.40;17.40;;;;;;;14.97;74.62;101576.87;112933;1234;23027;-75
2023/09/05 05:32:05;;;;;;;19.80;16.90;;;;;;;15.07;74.59;101571.77;112773;1239;23038;-75
2023/09/05 05:34:48;;;;;;;17.70;15.90;;;;;;;15.17;74.40;101564.00;112771;1232;21957;-74
2023/09/05 05:37:23;;;;;;;18.80;17.00;;;;;;;15.28;74.10;101560.83;112800;1239;23571;-75
2023/09/05 05:39:54;;;;;;;21.10;17.40;;;;;;;15.35;74.02;101559.80;112793;1239;22086;-74
2023/09/05 05:42:31;;;;;;;19.80;17.80;;;;;;;15.46;73.85;101560.66;112628;1239;22381;-77
2023/09/05 05:45:10;;;;;;;20.30;17.30;;;;;;;15.57;73.79;101563.38;112739;1239;22421;-77
2023/09/05 05:47:50;;;;;;;19.00;17.00;;;;;;;15.69;73.50;101563.42;112587;1239;21960;-76
2023/09/05 05:50:21;;;;;;;21.30;17.50;;;;;;;15.82;73.37;101562.40;109077;1234;5110884;-75
2023/09/05 05:52:59;;;;;;;18.60;15.50;;;;;;;15.97;73.13;101563.02;112838;1236;21943;-75
2023/09/05 05:55:34;;;;;;;16.70;14.80;;;;;;;16.12;72.80;101566.09;113119;1236;24384;-75
2023/09/05 05:58:06;;;;;;;17.60;14.80;;;;;;;16.29;72.41;101566.63;112296;1240;23131;-77
2023/09/05 06:00:38;;;;;;;22.70;16.70;;;;;;;16.44;72.01;101564.94;112702;1240;21962;-78
2023/09/05 06:03:11;;;;;;;19.40;14.40;;;;;;;16.60;71.69;101563.70;112378;1240;22930;-76
2023/09/05 06:05:52;;;;;;;17.20;15.20;;;;;;;16.80;71.41;101567.24;112112;1244;22105;-75
2023/09/05 06:08:27;;;;;;;15.00;13.40;;;;;;;17.03;70.94;101566.77;112252;1243;23706;-76
2023/09/05 06:10:57;;;;;;;15.90;14.20;;;;;;;17.28;70.61;101563.84;112114;1244;21952;-77
2023/09/05 06:13:26;;;;;;;15.60;13.40;;;;;;;17.56;70.20;101559.70;111613;1249;21964;-76
2023/09/05 06:16:01;;;;;;;18.70;13.50;;;;;;;17.85;69.70;101550.95;111549;1249;22980;-75
2023/09/05 06:18:33;;;;;;;18.40;13.30;;;;;;;18.18;69.14;101556.69;111569;1249;21984;-76
2023/09/05 06:21:17;;;;;;;14.60;12.80;;;;;;;18.52;68.14;101556.89;111675;1248;23628;-76
2023/09/05 06:23:51;;;;;;;14.10;12.00;;;;;;;18.85;67.18;101557.67;112095;1243;21980;-77
2023/09/05 06:26:27;;;;;;;18.90;11.70;;;;;;;19.23;66.58;101558.63;111957;1243;23584;-76
2023/09/05 06:29:01;;;;;;;15.80;10.80;;;;;;;19.56;64.77;101562.74;112031;1244;21987;-77
2023/09/05 06:31:37;;;;;;;12.40;10.60;;;;;;;19.92;63.79;101563.38;112189;1244;22720;-76
2023/09/05 06:34:19;;;;;;;20.40;9.60;;;;;;;20.35;62.83;101559.13;112278;1243;21948;-77
2023/09/05 06:36:57;;;;;;;13.30;9.00;;;;;;;20.85;61.94;101557.70;111803;1245;22001;-76
2023/09/05 06:39:36;;;;;;;17.70;9.60;;;;;;;21.39;61.15;101557.29;113028;1238;22503;-77
2023/09/05 06:42:08;;;;;;;16.90;10.20;;;;;;;21.88;58.50;101557.85;113096;1238;22535;-76
2023/09/05 06:44:42;;;;;;;13.20;10.30;;;;;;;22.28;56.94;101562.14;113073;1238;22518;-77
2023/09/05 06:47:17;;;;;;;11.10;9.70;;;;;;;22.65;55.41;101560.64;112696;1241;21976;-77
2023/09/05 06:50:07;;;;;;;15.40;11.40;;;;;;;23.07;54.71;101559.19;112514;1242;23050;-76
2023/09/05 06:52:39;;;;;;;17.90;10.30;;;;;;;23.45;52.85;101566.89;111768;1246;22007;-76
2023/09/05 06:55:14;;;;;;;15.50;12.50;;;;;;;23.76;51.81;101565.68;111869;1247;22561;-75
2023/09/05 06:57:47;;;;;;;14.20;12.00;;;;;;;24.03;51.04;101562.27;111943;1246;22004;-76
2023/09/05 07:00:16;;;;;;;14.40;10.90;;;;;;;24.32;49.96;101563.85;111528;1250;21964;-76
2023/09/05 07:02:59;;;;;;;16.60;10.40;;;;;;;24.61;49.22;101563.56;111540;1250;22040;-78
2023/09/05 07:05:45;;;;;;;11.10;10.00;;;;;;;24.82;48.25;101562.98;111894;1246;23015;-76
2023/09/05 07:08:37;;;;;;;11.90;10.60;;;;;;;25.11;47.66;101557.45;112155;1244;21951;-77
2023/09/05 07:11:10;;;;;;;14.30;9.90;;;;;;;25.38;47.21;101561.91;112219;1241;22080;-76
2023/09/05 07:13:39;;;;;;;14.30;10.20;;;;;;;25.66;46.87;101562.48;112330;1241;23035;-77
2023/09/05 07:16:12;;;;;;;10.80;9.70;;;;;;;25.90;45.89;101563.94;111998;1244;23655;-76
2023/09/05 07:18:41;;;;;;;11.70;8.30;;;;;;;26.13;44.99;101558.98;112149;1240;21950;-75
2023/09/05 07:21:15;;;;;;;15.10;8.80;;;;;;;26.35;45.07;101559.95;112657;1240;22087;-75
2023/09/05 07:23:47;;;;;;;11.10;7.70;;;;;;;26.77;44.76;101558.67;111812;1247;24328;-76
2023/09/05 07:26:18;;;;;;;12.20;7.90;;;;;;;27.03;42.94;101559.41;111896;1247;23610;-77
2023/09/05 07:28:48;;;;;;;13.30;6.70;;;;;;;27.15;42.16;101559.28;111833;1247;21986;-76
2023/09/05 07:31:20;;;;;;;8.30;6.40;;;;;;;27.42;42.68;101559.20;111736;1247;23019;-77
2023/09/05 07:33:51;;;;;;;10.90;6.10;;;;;;;27.72;41.34;101560.71;111920;1243;22012;-77
2023/09/05 07:36:22;;;;;;;;;;;;;;;27.75;39.98;101563.89;112245;1243;22463;-77
2023/09/05 07:38:51;;;;;;;;;;;;;;;27.68;40.54;101570.04;111963;1243;21968;-77
2023/09/05 07:41:30;;;;;;;8.00;5.50;;;;;;;27.90;40.96;101569.18;111653;1248;21975;-76
2023/09/05 07:44:00;;;;;;;7.60;5.40;;;;;;;28.14;39.84;101573.88;111610;1244;21996;-77
2023/09/05 07:46:29;;;;;;;8.40;6.50;;;;;;;28.33;39.09;101571.06;111682;1248;21978;-77
2023/09/05 07:48:57;;;;;;;8.00;4.80;;;;;;;28.42;38.52;101565.92;111872;1241;21956;-77
2023/09/05 07:51:26;;;;;;;8.50;5.70;;;;;;;28.50;38.66;101565.89;112430;1241;23684;-77
2023/09/05 07:54:07;;;;;;;10.00;5.10;;;;;;;28.69;38.23;101563.22;112369;1241;23019;-77
2023/09/05 07:56:49;;;;;;;11.20;5.50;;;;;;;28.94;37.84;101565.05;112655;1234;23012;-77
2023/09/05 07:59:20;;;;;;;8.40;4.50;;;;;;;29.06;36.46;101567.71;112508;1236;21957;-77
2023/09/05 08:01:55;;;;;;;7.60;4.50;;;;;;;29.09;35.92;101571.55;112772;1236;22007;-77
2023/09/05 08:04:24;;;;;;;6.10;4.20;;;;;;;29.18;36.03;101570.10;112892;1236;22704;-78
2023/09/05 08:07:01;;;;;;;11.10;4.00;;;;;;;29.29;35.30;101565.85;112764;1236;21923;-77
2023/09/05 08:09:38;;;;;;;5.90;4.00;;;;;;;29.33;35.30;101564.69;112826;1236;22699;-76
2023/09/05 08:12:13;;;;;;;5.90;4.30;;;;;;;29.50;34.79;101563.79;112824;1236;21948;-76
2023/09/05 08:14:50;;;;;;;11.80;4.20;;;;;;;29.55;34.35;101565.59;113068;1236;21952;-77
2023/09/05 08:17:26;;;;;;;5.70;3.90;;;;;;;29.54;33.84;101563.05;112320;1242;21948;-76
2023/09/05 08:20:03;;;;;;;5.90;3.60;;;;;;;29.39;33.73;101563.41;112066;1243;23706;-76
2023/09/05 08:22:44;;;;;;;9.50;4.20;;;;;;;29.49;33.82;101569.02;111663;1248;21977;-77
2023/09/05 08:25:24;;;;;;;;;;;;;;;29.74;34.08;101572.55;111652;1248;22001;-77
2023/09/05 08:28:11;;;;;;;6.50;5.70;;;;;;;29.78;33.12;101570.30;111659;1248;23980;-81
2023/09/05 08:30:49;;;;;;;7.80;3.80;;;;;;;29.79;32.62;101569.32;111382;1248;21991;-78
2023/09/05 08:33:45;;;;;;;13.80;4.50;;;;;;;29.86;32.91;101562.71;111567;1248;22035;-78
2023/09/05 08:36:26;;;;;;;6.80;3.30;;;;;;;30.06;32.61;101562.09;111550;1249;23788;-78
2023/09/05 08:39:00;;;;;;;14.70;3.80;;;;;;;30.11;32.02;101560.72;111065;1253;21964;-77
2023/09/05 08:41:33;;;;;;;7.00;3.20;;;;;;;30.21;32.13;101559.57;111446;1250;21971;-77
2023/09/05 08:44:19;;;;;;;6.50;3.70;;;;;;;30.33;32.22;101557.20;111378;1246;21950;-80
2023/09/05 08:47:02;;;;;;;5.70;2.90;;;;;;;30.46;31.17;101556.95;111935;1240;23060;-80
2023/09/05 08:49:37;;;;;;;5.40;2.50;;;;;;;30.31;30.47;101557.09;111862;1245;23713;-78
2023/09/05 08:52:21;;;;;;;6.60;2.90;;;;;;;30.15;31.14;101555.40;111616;1246;23129;-78
2023/09/05 08:55:08;;;;;;;4.80;2.20;;;;;;;30.18;31.19;101556.43;112028;1246;22074;-78
2023/09/05 08:57:47;;;;;;;4.30;2.40;;;;;;;30.10;30.52;101558.68;112379;1241;23795;-76
2023/09/05 09:00:32;;;;;;;7.20;2.50;;;;;;;30.14;30.68;101561.48;112366;1241;22048;-80
2023/09/05 09:03:08;;;;;;;7.70;2.20;;;;;;;30.14;30.17;101561.30;112223;1244;21987;-78
2023/09/05 09:05:46;;;;;;;9.50;2.70;;;;;;;30.23;31.06;101558.02;112023;1244;21975;-77
2023/09/05 09:08:31;;;;;;;4.00;2.40;;;;;;;30.30;30.88;101556.44;111999;1244;21971;-79
2023/09/05 09:11:11;;;;;;;9.80;3.00;;;;;;;30.39;30.56;101550.37;112256;1244;23671;-77
2023/09/05 09:13:51;;;;;;;9.30;3.00;;;;;;;30.51;30.58;101549.93;112027;1245;22034;-78
2023/09/05 09:16:23;;;;;;;5.20;3.20;;;;;;;30.74;30.41;101543.25;111871;1245;22582;-77
2023/09/05 09:19:14;;;;;;;4.90;2.30;;;;;;;31.02;29.98;101548.25;111801;1245;23735;-77
2023/09/05 09:22:07;;;;;;;7.80;2.60;;;;;;;31.19;29.12;101550.77;112569;1241;23008;-78
2023/09/05 09:24:55;;;;;;;7.20;2.40;;;;;;;31.10;28.39;101545.39;112056;1245;22049;-77
2023/09/05 09:27:31;;;;;;;4.70;3.10;;;;;;;31.03;28.60;101537.68;112136;1245;22429;-77
2023/09/05 09:30:30;;;;;;;5.80;2.80;;;;;;;30.96;28.40;101537.52;111949;1245;22283;-77
2023/09/05 09:33:03;;;;;;;6.30;2.80;;;;;;;30.98;28.26;101539.15;111763;1247;23720;-80
2023/09/05 09:35:57;;;;;;;6.10;2.70;;;;;;;30.87;28.06;101541.39;111965;1247;23684;-80
2023/09/05 09:38:40;;;;;;;6.30;2.80;;;;;;;30.63;28.29;101536.30;111919;1247;22035;-78
2023/09/05 09:41:14;;;;;;;10.10;2.30;;;;;;;30.63;29.04;101536.02;111617;1247;23681;-77
2023/09/05 09:43:43;;;;;;;5.10;2.90;;;;;;;30.81;29.03;101534.76;111783;1246;23037;-77
2023/09/05 09:46:24;;;;;;;11.90;3.00;;;;;;;30.95;28.55;101534.96;111953;1245;22009;-77
2023/09/05 09:49:09;;;;;;;12.20;3.10;;;;;;;31.12;28.87;101531.78;111546;1250;23023;-77
2023/09/05 09:51:42;;;;;;;5.50;2.10;;;;;;;31.29;28.49;101526.99;111867;1246;21949;-78
2023/09/05 09:54:47;;;;;;;6.30;2.80;;;;;;;31.29;28.11;101532.83;111506;1249;21967;-77
2023/09/05 09:57:45;;;;;;;4.10;2.60;;;;;;;31.22;27.83;101535.55;110934;1257;21982;-78
2023/09/05 10:00:24;;;;;;;6.30;3.40;;;;;;;31.00;27.76;101536.23;110915;1257;22298;-77
2023/09/05 10:03:08;;;;;;;4.60;2.40;;;;;;;30.82;28.06;101531.52;110800;1257;23072;-79
2023/09/05 10:05:41;;;;;;;5.40;2.40;;;;;;;30.92;28.40;101529.05;111050;1257;21984;-79
2023/09/05 10:08:16;;;;;;;8.10;2.70;;;;;;;30.92;27.53;101526.11;110773;1258;21949;-78
2023/09/05 10:10:54;;;;;;;3.80;2.40;;;;;;;30.75;27.79;101521.79;110735;1257;23115;-76
2023/09/05 10:13:32;;;;;;;4.80;3.00;;;;;;;30.70;27.99;101520.12;111015;1255;21965;-78
2023/09/05 10:16:03;;;;;;;6.50;2.90;;;;;;;30.74;28.01;101516.09;110777;1256;22015;-77
2023/09/05 10:18:40;;;;;;;9.20;3.60;;;;;;;30.74;27.77;101517.73;111085;1255;23798;-77
2023/09/05 10:21:11;;;;;;;4.00;2.20;;;;;;;30.59;27.52;101516.61;111316;1249;21975;-79
2023/09/05 10:23:45;;;;;;;7.80;2.80;;;;;;;30.33;27.29;101517.05;111166;1254;21977;-77
2023/09/05 10:26:16;;;;;;;6.90;2.90;;;;;;;30.21;28.04;101512.48;111088;1253;21966;-79
2023/09/05 10:28:56;;;;;;;5.20;3.10;;;;;;;30.19;28.16;101515.52;111609;1247;21945;-78
2023/09/05 10:31:33;;;;;;;5.80;2.30;;;;;;;30.16;28.17;101515.73;111944;1247;23838;-80
2023/09/05 10:34:15;;;;;;;6.90;2.80;;;;;;;30.12;28.35;101512.01;112031;1246;22019;-79
2023/09/05 10:36:58;;;;;;;7.20;3.30;;;;;;;30.03;28.57;101510.09;112092;1242;22006;-79
2023/09/05 10:39:34;;;;;;;6.80;3.10;;;;;;;30.05;28.97;101505.11;111879;1250;21990;-79
2023/09/05 10:42:07;;;;;;;5.40;3.10;;;;;;;30.18;28.93;101506.17;111978;1250;21981;-79
2023/09/05 10:44:48;;;;;;;8.00;3.10;;;;;;;30.29;28.71;101505.63;111812;1250;21978;-79
2023/09/05 10:47:33;;;;;;;6.20;2.70;;;;;;;30.20;28.09;101502.68;111252;1255;22009;-79
2023/09/05 10:50:15;;;;;;;8.20;2.80;;;;;;;30.06;28.44;101501.66;111621;1250;22953;-77
2023/09/05 10:52:48;;;;;;;6.00;3.30;;;;;;;29.99;28.87;101495.72;111639;1250;21965;-78
2023/09/05 10:55:29;;;;;;;6.40;2.80;;;;;;;29.76;28.72;101499.27;111694;1250;21958;-78
2023/09/05 10:58:47;;;;;;;7.40;3.50;;;;;;;29.40;29.12;101494.44;111898;1245;21929;-78
2023/09/05 11:01:32;;;;;;;7.70;2.80;;;;;;;29.03;29.74;101490.38;111595;1252;21961;-79
2023/09/05 11:08:20;;;;;;;8.80;2.90;;;;;;;28.10;30.38;101484.52;112635;1241;22479;-78
2023/09/05 11:11:42;;;;;;;3.90;3.20;;;;;;;27.68;30.79;101484.75;111620;1246;22019;-77
2023/09/05 11:15:26;;;;;;;7.50;2.80;;;;;;;27.39;31.51;101475.42;112011;1246;21946;-80
2023/09/05 11:19:05;;;;;;;7.10;3.20;;;;;;;27.24;31.96;101471.13;111592;1248;21967;-82
2023/09/05 11:23:11;;;;;;;9.20;3.20;;;;;;;27.14;31.86;101466.27;111845;1248;23820;-81
2023/09/05 11:26:06;;;;;;;5.30;3.40;;;;;;;27.03;32.33;101461.30;111451;1254;22477;-79
2023/09/05 11:29:39;;;;;;;4.30;3.00;;;;;;;26.94;32.18;101459.98;111342;1252;21978;-80
2023/09/05 11:32:19;;;;;;;5.90;3.00;;;;;;;26.72;32.60;101456.04;111250;1252;21969;-81
2023/09/05 11:35:04;;;;;;;4.30;2.70;;;;;;;26.63;32.66;101451.02;111245;1255;21980;-79
2023/09/05 11:38:11;;;;;;;6.90;2.80;;;;;;;26.45;32.66;101447.88;111305;1254;22308;-79
2023/09/05 11:41:21;;;;;;;6.40;3.80;;;;;;;26.36;33.22;101440.13;111195;1255;21925;-82
2023/09/05 11:44:00;;;;;;;6.20;3.00;;;;;;;26.23;33.24;101435.53;111427;1250;21972;-79
2023/09/05 11:46:51;;;;;;;5.50;2.60;;;;;;;26.07;33.57;101436.88;111368;1250;21978;-78
2023/09/05 11:49:55;;;;;;;3.90;3.00;;;;;;;26.00;33.90;101431.65;112658;1239;21975;-81
2023/09/05 11:53:14;;;;;;;14.80;4.10;;;;;;;26.05;33.95;101428.12;112851;1239;22003;-80
2023/09/05 11:56:23;;;;;;;6.80;3.70;;;;;;;26.08;34.07;101422.01;113165;1239;22448;-81
2023/09/05 11:59:12;;;;;;;4.70;3.40;;;;;;;26.08;33.95;101422.95;112486;1242;23681;-79
2023/09/05 12:02:08;;;;;;;4.40;3.50;;;;;;;26.01;33.74;101423.85;112531;1242;21970;-78
2023/09/05 12:05:27;;;;;;;12.30;4.50;;;;;;;25.97;34.07;101412.88;112827;1240;21957;-81
2023/09/05 12:08:34;;;;;;;5.60;3.30;;;;;;;26.01;33.93;101409.41;112882;1240;21950;-81
2023/09/05 12:11:43;;;;;;;9.40;3.10;;;;;;;26.00;33.83;101405.05;112419;1240;22971;-78
2023/09/05 12:15:17;;;;;;;;;;;;;;;;;;;;;
2023/09/05 12:18:27;;;;;;;6.40;2.80;;;;;;;25.97;33.59;101399.48;112724;1241;22032;-80
2023/09/05 12:21:39;;;;;;;8.50;3.40;;;;;;;25.78;33.51;101396.83;112409;1245;21980;-80
2023/09/05 12:24:52;;;;;;;5.30;2.80;;;;;;;25.67;33.86;101396.98;112317;1245;21985;-81
2023/09/05 12:28:15;;;;;;;3.80;2.60;;;;;;;25.54;33.90;101397.26;112342;1245;22486;-79
2023/09/05 12:31:35;;;;;;;5.40;2.80;;;;;;;25.49;33.97;101397.28;111806;1249;23471;-79
2023/09/05 12:34:27;;;;;;;5.50;3.40;;;;;;;25.47;34.07;101393.14;111952;1249;21990;-79
2023/09/05 12:37:25;;;;;;;4.70;3.10;;;;;;;25.54;34.11;101387.27;111402;1249;22332;-81
2023/09/05 12:41:09;;;;;;;9.30;3.80;;;;;;;25.50;33.90;101384.66;112287;1244;22888;-80
2023/09/05 12:43:58;;;;;;;6.40;3.20;;;;;;;25.45;34.10;101381.24;112271;1243;22910;-79
2023/09/05 12:46:37;;;;;;;7.00;3.20;;;;;;;25.44;34.12;101376.83;112551;1244;21962;-79
2023/09/05 12:49:21;;;;;;;7.10;2.90;;;;;;;25.41;34.04;101370.90;111697;1246;22853;-78
2023/09/05 12:52:11;;;;;;;4.40;2.90;;;;;;;25.36;33.88;101367.58;112307;1242;22109;-78
2023/09/05 12:55:23;;;;;;;4.20;2.80;;;;;;;25.36;33.91;101360.09;112370;1244;21959;-79
2023/09/05 12:58:11;;;;;;;7.10;3.30;;;;;;;25.32;33.94;101355.41;111272;1252;23594;-80